AirNav   Air Wisconsin Up To $57,000 Bonus
 
 1206 users online  

MN79 Lake Kabetogama Area Fire Department Heliport
Kabetogama, Minnesota, USA


FAA INFORMATION EFFECTIVE 15 JULY 2021

Location

FAA Identifier: MN79
Lat/Long: 48-26-21.1090N 093-03-03.0870W
48-26.351817N 093-03.051450W
48.4391969,-93.0508575
(estimated)
Elevation: 1214 ft. / 370 m
From city: 1 mile W of KABETOGAMA, MN
Time zone: UTC -5 (UTC -6 during Standard Time)
Zip code: 56669

Heliport Operations

Heliport use: Private use. Permission required prior to landing
Activation date: 01/2021
Control tower: no
ARTCC: MINNEAPOLIS CENTER
FSS: PRINCETON FLIGHT SERVICE STATION
Attendance: 
Segmented circle: no

Heliport Communications

WX ASOS at INL (16 nm NW): 120.0 (218-285-6156)

Nearby radio navigation aids

VOR radial/distance  VOR name  Freq  Var
INLr112/16.0INTERNATIONAL FALLS VOR/D111.0006E

 
NDB name  Hdg/Dist  Freq  Var  ID
SCOTT296/25.438501WSCG ... -.-. --.

Heliport Services

Runway Information

Helipad H1

Dimensions: 45 x 45 ft. / 14 x 14 m
Surface: concrete/turf
Latitude: 48-26.351817N
Longitude: 093-03.051450W
Elevation: 1214.0 ft.
Traffic pattern: leftleft

Heliport Ownership and Management from official FAA records

Ownership: Publicly-owned
Owner: LAKE KABETOGAMA AREA FIRE DEPT
9843 GAMMA RD
KABETOGAMA, MN 56669
Phone 218-875-2603
EMAIL ADDRESS: KABFIREDEPT@FRONTIERNET.NET
Manager: JAY TOMCZAK
9843 GAMMA RD
KABETOGAMA, MN 56669
Phone 218-240-4094
EMAIL ADDRESS: PINERIDGE@CITLINK.NET

Heliport Operational Statistics

Aircraft based on the field: 4
Single engine airplanes: 1
Multi engine airplanes: 1
Helicopters: 1
Gliders airplanes: 1
    

Additional Remarks

A30A-H1 TLOF 45X45 FT; FATO 80X80 FT.

Instrument Procedures

There are no published instrument procedures at MN79.

Some nearby airports with instrument procedures:

KINL - Falls International Airport-Einarson Field (16 nm NW)
KORB - Orr Regional Airport (27 nm S)
KCQM - Cook Municipal Airport (40 nm S)
KFOZ - Bigfork Municipal Airport (46 nm SW)
12D - Tower Municipal Airport (48 nm SE)
 
Loc | Ops | Rwys | IFR | FBO | Links
Com | Nav | Svcs | Stats | Notes
Aerial photo
No photo
 
Airport distance calculator
Flying to Lake Kabetogama Area Fire Department Heliport? Find the distance to fly.

From to MN79

Sunrise and sunset
Times for 28-Jul-2021
 Local
(UTC-5)
 Zulu
(UTC)
Morning civil twilight05:0510:05
Sunrise05:4310:43
Sunset20:5501:55
Evening civil twilight21:3202:32

Current date and time
Zulu (UTC)  28-Jul-2021 22:52:16
Local (UTC-5)  28-Jul-2021 17:52:16
 
METAR
KINL 
16nm NW 
282154Z AUTO 15006KT 10SM FEW040 SCT049 26/21 A2984 RMK AO2 SLP101 T02610206
KCDD 
22nm SE 
282234Z AUTO 00000KT 10SM SCT048 22/19 A2986 RMK AO2
KORB 
26nm S 
282233Z AUTO 13003KT 10SM CLR 26/19 A2984 RMK AO2
TAF
KINL 
16nm NW 
281858Z 2819/2918 25008KT P6SM VCTS SCT040CB OVC140 TEMPO 2819/2822 30015G40KT 1SM TSRA BKN025CB OVC080 FM282200 32010G16KT P6SM SCT060 BKN110 FM290000 36008KT P6SM FEW035 SCT150
NOTAMs
Click for the latest NOTAMs
NOTAMs are issued by the DoD/FAA and will open in a separate window not controlled by AirNav.

 

 
 

Would you like to see your business listed on this page?

 If your business provides an interesting product or service to pilots, flight crews, aircraft, or users of the Lake Kabetogama Area Fire Department Heliport, you should consider listing it here.  To start the listing process, click on the button below
 
Add a business
 

Other Pages about Lake Kabetogama Area Fire Department Heliport

Update a link
 
Copyright © AirNav, LLC. All rights reserved. Privacy Policy  Contact